createdAt,value
2022-07-29T00:03:17.585Z,958.41
2022-07-29T00:08:49.113Z,958.41
2022-07-29T00:14:21.357Z,958.37
2022-07-29T00:19:53.130Z,958.33
2022-07-29T00:25:24.690Z,958.35
2022-07-29T00:30:56.466Z,958.35
2022-07-29T00:36:28.834Z,958.33
2022-07-29T00:42:00.793Z,958.31
2022-07-29T00:47:32.481Z,958.27
2022-07-29T00:53:04.296Z,958.21
2022-07-29T00:58:36.033Z,958.18
2022-07-29T03:04:51.408Z,957.53
2022-07-29T03:10:23.196Z,957.57
2022-07-29T03:15:55.353Z,957.57
2022-07-29T03:21:26.855Z,957.55
2022-07-29T03:26:58.962Z,957.53
2022-07-29T03:32:30.378Z,957.51
2022-07-29T03:38:02.435Z,957.49
2022-07-29T03:43:34.697Z,957.51
2022-07-29T03:49:06.280Z,957.57
2022-07-29T03:54:38.250Z,957.61
2022-07-29T04:00:09.750Z,957.67
2022-07-29T04:02:32.946Z,957.71
2022-07-29T04:08:04.548Z,957.71
2022-07-29T04:13:36.792Z,957.72
2022-07-29T04:19:08.504Z,957.74
2022-07-29T04:24:44.036Z,957.76
2022-07-29T04:30:12.081Z,957.82
2022-07-29T04:35:47.125Z,957.86
2022-07-29T04:41:15.355Z,957.88
2022-07-29T04:46:47.331Z,957.94
2022-07-29T04:52:19.130Z,957.98
2022-07-29T04:57:50.845Z,957.96
2022-07-29T05:03:22.759Z,958.02
2022-07-29T05:08:54.558Z,958.04
2022-07-29T05:14:26.417Z,958.06
2022-07-29T05:19:58.233Z,958.10
2022-07-29T05:25:42.991Z,958.12
2022-07-29T05:31:01.748Z,958.14
2022-07-29T05:36:33.450Z,958.16
2022-07-29T05:42:05.162Z,958.14
2022-07-29T05:47:37.144Z,958.18
2022-07-29T05:53:19.421Z,958.21
2022-07-29T05:58:40.727Z,958.25
2022-07-29T06:04:12.449Z,958.23
2022-07-29T06:09:44.360Z,958.21
2022-07-29T06:15:16.211Z,958.19
2022-07-29T06:20:47.680Z,958.21
2022-07-29T06:26:19.385Z,958.21
2022-07-29T06:31:51.215Z,958.23
2022-07-29T06:37:23.447Z,958.19
2022-07-29T06:48:27.735Z,958.23
2022-07-29T06:54:02.663Z,958.21
2022-07-29T06:59:35.577Z,958.25
2022-07-29T07:05:03.198Z,958.31
2022-07-29T07:10:34.931Z,958.33
2022-07-29T07:16:06.590Z,958.35
2022-07-29T07:21:38.389Z,958.35
2022-07-29T07:27:10.189Z,958.31
2022-07-29T07:32:42.137Z,958.27
2022-07-29T07:38:13.663Z,958.25
2022-07-29T07:43:45.528Z,958.21
2022-07-29T07:49:17.637Z,958.19
2022-07-29T07:54:48.977Z,958.21
2022-07-29T08:00:23.274Z,958.19
2022-07-29T08:05:52.412Z,958.14
2022-07-29T08:11:24.002Z,958.18
2022-07-29T08:16:55.860Z,958.16
2022-07-29T08:22:27.555Z,958.18
2022-07-29T08:27:59.559Z,958.14
2022-07-29T08:33:31.586Z,958.14
2022-07-29T08:39:03.935Z,958.16
2022-07-29T08:44:35.862Z,958.14
2022-07-29T08:50:07.697Z,958.18
2022-07-29T08:55:39.726Z,958.19
2022-07-29T09:01:12.417Z,958.19
2022-07-29T09:06:43.529Z,958.21
2022-07-29T09:12:28.910Z,958.25
2022-07-29T09:17:46.943Z,958.31
2022-07-29T09:23:23.058Z,958.29
2022-07-29T09:28:50.629Z,958.27
2022-07-29T09:34:22.445Z,958.27
2022-07-29T09:39:54.185Z,958.29
2022-07-29T09:45:25.928Z,958.25
2022-07-29T09:50:57.791Z,958.23
2022-07-29T09:56:29.277Z,958.27
2022-07-29T10:02:01.082Z,958.27
2022-07-29T10:07:33.085Z,958.25
2022-07-29T10:13:09.001Z,958.25
2022-07-29T10:18:36.714Z,958.25
2022-07-29T10:24:15.109Z,958.23
2022-07-29T10:29:40.224Z,958.21
2022-07-29T10:35:12.225Z,958.18
2022-07-29T10:40:43.894Z,958.16
2022-07-29T10:51:47.963Z,958.12
2022-07-29T11:02:49.880Z,958.06
2022-07-29T11:08:21.017Z,958.06
2022-07-29T11:13:53.169Z,958.04
2022-07-29T11:19:29.885Z,958.02
2022-07-29T11:24:56.217Z,958.02
2022-07-29T11:30:35.000Z,957.98
2022-07-29T11:41:38.318Z,957.90
2022-07-29T11:47:10.284Z,957.90
2022-07-29T11:58:13.814Z,957.82
2022-07-29T12:03:46.157Z,957.82
2022-07-29T12:17:06.406Z,957.71
2022-07-29T12:22:37.188Z,957.69
2022-07-29T12:28:08.982Z,957.65
2022-07-29T12:33:40.514Z,957.61
2022-07-29T12:39:11.745Z,957.55
2022-07-29T12:55:46.926Z,957.49
2022-07-29T13:01:18.487Z,957.49
2022-07-29T13:12:23.078Z,957.49
2022-07-29T13:17:54.755Z,957.47
2022-07-29T13:23:26.322Z,957.45
2022-07-29T13:28:58.048Z,957.49
2022-07-29T13:34:30.107Z,957.55
2022-07-29T13:40:01.703Z,957.61
2022-07-29T13:45:33.896Z,957.61
2022-07-29T13:51:05.854Z,957.57
2022-07-29T13:56:38.079Z,957.47
2022-07-29T14:02:09.880Z,957.37
2022-07-29T14:13:24.326Z,957.29
2022-07-29T14:18:43.073Z,957.29
2022-07-29T14:24:18.069Z,957.31
2022-07-29T14:29:47.232Z,957.29
2022-07-29T14:35:19.152Z,957.27
2022-07-29T14:40:51.081Z,957.27
2022-07-29T14:46:22.700Z,957.25
2022-07-29T14:51:54.310Z,957.27
2022-07-29T14:57:25.919Z,957.33
2022-07-29T15:03:02.274Z,957.37
2022-07-29T15:08:29.425Z,957.39
2022-07-29T15:14:01.098Z,957.45
2022-07-29T15:25:03.114Z,957.55
2022-07-29T15:30:34.811Z,957.55
2022-07-29T15:36:06.676Z,957.53
2022-07-29T15:41:38.433Z,957.55
2022-07-29T15:47:10.018Z,957.51
2022-07-29T15:52:41.415Z,957.51
2022-07-29T15:58:13.052Z,957.51
2022-07-29T16:03:46.334Z,957.51
2022-07-29T16:09:16.293Z,957.51
2022-07-29T16:14:48.447Z,957.53
2022-07-29T16:20:20.120Z,957.55
2022-07-29T16:26:00.541Z,957.57
2022-07-29T16:31:23.351Z,957.61
2022-07-29T16:36:54.665Z,957.63
2022-07-29T16:42:45.555Z,957.69
2022-07-29T16:48:00.930Z,957.80
2022-07-29T16:53:30.244Z,957.90
2022-07-29T16:59:01.057Z,957.98
2022-07-29T17:04:32.875Z,958.06
2022-07-29T17:10:04.812Z,958.18
2022-07-29T17:15:36.546Z,958.25
2022-07-29T17:21:08.383Z,958.31
2022-07-29T17:26:40.251Z,958.39
2022-07-29T17:32:11.953Z,958.57
2022-07-29T17:37:43.876Z,958.78
2022-07-29T17:43:16.039Z,958.98
2022-07-29T17:48:47.654Z,959.16
2022-07-29T17:54:19.495Z,959.21
2022-07-29T17:59:51.173Z,959.23
2022-07-29T18:05:23.209Z,959.27
2022-07-29T18:10:54.695Z,959.31
2022-07-29T18:16:26.900Z,959.33
2022-07-29T18:22:03.534Z,959.37
2022-07-29T18:27:30.495Z,959.45
2022-07-29T18:33:20.837Z,959.49
2022-07-29T18:38:34.314Z,959.53
2022-07-29T18:44:05.957Z,959.57
2022-07-29T18:49:37.766Z,959.61
2022-07-29T18:55:09.615Z,959.65
2022-07-29T19:00:41.550Z,959.74
2022-07-29T19:06:13.280Z,959.80
2022-07-29T19:11:44.869Z,959.90
2022-07-29T19:17:16.883Z,959.92
2022-07-29T19:22:48.520Z,959.94
2022-07-29T19:28:20.245Z,959.96
2022-07-29T19:33:51.871Z,960.02
2022-07-29T19:39:35.367Z,960.06
2022-07-29T19:44:55.464Z,960.10
2022-07-29T19:50:27.590Z,960.12
2022-07-29T19:55:59.223Z,960.20
2022-07-29T20:01:31.190Z,960.21
2022-07-29T20:07:03.027Z,960.21
2022-07-29T20:12:34.756Z,960.27
2022-07-29T20:18:06.740Z,960.27
2022-07-29T20:23:38.514Z,960.27
2022-07-29T20:29:10.040Z,960.29
2022-07-29T20:34:41.968Z,960.29
2022-07-29T20:40:13.839Z,960.27
2022-07-29T20:45:45.736Z,960.25
2022-07-29T20:51:17.737Z,960.27
2022-07-29T20:56:49.657Z,960.25
2022-07-29T21:02:22.919Z,960.20
2022-07-29T21:07:58.083Z,960.20
2022-07-29T21:13:26.447Z,960.20
2022-07-29T21:18:58.047Z,960.18
2022-07-29T21:24:32.756Z,960.20
2022-07-29T21:30:05.220Z,960.16
2022-07-29T21:36:07.314Z,960.20
2022-07-29T21:41:09.104Z,960.21
2022-07-29T21:46:41.196Z,960.23
2022-07-29T21:52:13.195Z,960.27
2022-07-29T21:57:45.218Z,960.33
2022-07-29T22:03:17.228Z,960.33
2022-07-29T22:08:52.520Z,960.35
2022-07-29T22:14:24.410Z,960.33
2022-07-29T22:19:56.562Z,960.35
2022-07-29T22:25:28.474Z,960.33
2022-07-29T22:31:00.336Z,960.33
2022-07-29T22:36:32.360Z,960.35
2022-07-29T22:42:04.618Z,960.35
2022-07-29T22:53:08.270Z,960.35
2022-07-29T22:58:40.100Z,960.35
2022-07-29T23:04:12.143Z,960.27
2022-07-29T23:09:43.778Z,960.23
2022-07-29T23:15:15.632Z,960.14
2022-07-29T23:20:47.525Z,960.10
2022-07-29T23:26:19.603Z,960.00
2022-07-29T23:31:51.800Z,959.92
2022-07-29T23:37:23.653Z,959.88
2022-07-29T23:42:55.782Z,959.84
2022-07-29T23:48:27.672Z,959.82
2022-07-29T23:53:59.705Z,959.78
2022-07-29T23:59:31.817Z,959.76
